createdAt,value
2023-01-01T00:02:36.952Z,16.32
2023-01-01T00:07:40.690Z,16.35
2023-01-01T00:12:46.119Z,16.34
2023-01-01T00:17:51.647Z,16.34
2023-01-01T00:22:57.168Z,16.38
2023-01-01T00:28:03.237Z,16.42
2023-01-01T00:33:08.749Z,16.45
2023-01-01T00:38:14.748Z,16.52
2023-01-01T00:43:20.259Z,16.53
2023-01-01T00:48:25.800Z,16.51
2023-01-01T00:53:31.991Z,16.56
2023-01-01T00:58:37.455Z,16.51
2023-01-01T01:03:42.968Z,16.51
2023-01-01T01:08:49.089Z,16.51
2023-01-01T01:13:57.445Z,16.53
2023-01-01T01:19:05.431Z,16.53
2023-01-01T01:24:11.519Z,16.60
2023-01-01T01:29:17.053Z,16.50
2023-01-01T01:34:27.556Z,16.51
2023-01-01T01:39:29.801Z,16.56
2023-01-01T01:44:53.398Z,16.57
2023-01-01T01:50:10.688Z,16.54
2023-01-01T01:55:16.425Z,16.56
2023-01-01T02:00:21.876Z,16.58
2023-01-01T02:05:28.297Z,16.60
2023-01-01T02:10:34.030Z,16.62
2023-01-01T02:15:42.525Z,16.65
2023-01-01T02:20:56.813Z,16.59
2023-01-01T02:26:13.839Z,16.62
2023-01-01T02:31:25.129Z,16.50
2023-01-01T02:36:33.457Z,16.47
2023-01-01T02:41:41.956Z,16.49
2023-01-01T02:46:47.336Z,16.55
2023-01-01T02:52:08.285Z,16.52
2023-01-01T02:57:39.314Z,16.49
2023-01-01T03:03:04.185Z,16.42
2023-01-01T03:08:15.723Z,16.34
2023-01-01T03:13:24.159Z,16.40
2023-01-01T03:18:38.494Z,16.35
2023-01-01T03:23:49.929Z,16.27
2023-01-01T03:28:57.593Z,16.29
2023-01-01T03:34:06.103Z,16.25
2023-01-01T03:39:17.375Z,16.34
2023-01-01T03:44:31.840Z,16.32
2023-01-01T03:49:37.857Z,16.42
2023-01-01T03:55:06.034Z,16.41
2023-01-01T04:00:20.563Z,16.33
2023-01-01T04:05:27.771Z,16.28
2023-01-01T04:10:36.317Z,16.31
2023-01-01T04:15:41.908Z,16.19
2023-01-01T04:20:47.313Z,16.27
2023-01-01T04:25:52.769Z,16.31
2023-01-01T04:31:02.453Z,16.34
2023-01-01T04:36:10.595Z,16.35
2023-01-01T04:41:16.048Z,16.34
2023-01-01T04:46:23.657Z,16.34
2023-01-01T04:51:29.176Z,16.31
2023-01-01T04:56:34.732Z,16.34
2023-01-01T05:01:40.390Z,16.38
2023-01-01T05:06:46.128Z,16.41
2023-01-01T05:11:51.574Z,16.43
2023-01-01T05:16:57.081Z,16.37
2023-01-01T05:22:08.538Z,16.32
2023-01-01T05:27:09.916Z,16.37
2023-01-01T05:37:19.929Z,16.40
2023-01-01T05:42:25.458Z,16.44
2023-01-01T05:47:30.900Z,16.39
2023-01-01T05:52:37.972Z,16.33
2023-01-01T05:57:43.622Z,16.29
2023-01-01T06:02:50.909Z,16.29
2023-01-01T06:07:56.360Z,16.31
2023-01-01T06:13:02.009Z,16.20
2023-01-01T06:18:07.617Z,16.27
2023-01-01T06:23:13.088Z,16.22
2023-01-01T06:28:18.547Z,16.25
2023-01-01T06:33:23.937Z,16.25
2023-01-01T06:38:30.937Z,16.32
2023-01-01T06:43:37.411Z,16.30
2023-01-01T06:48:43.165Z,16.29
2023-01-01T06:53:50.001Z,16.32
2023-01-01T06:58:55.442Z,16.33
2023-01-01T07:04:06.451Z,16.33
2023-01-01T07:09:11.832Z,16.49
2023-01-01T07:14:17.243Z,16.44
2023-01-01T07:19:22.840Z,16.76
2023-01-01T07:24:28.296Z,16.78
2023-01-01T07:29:33.680Z,16.79
2023-01-01T07:34:39.636Z,16.81
2023-01-01T07:39:45.095Z,16.79
2023-01-01T07:44:50.476Z,16.73
2023-01-01T07:49:56.122Z,16.67
2023-01-01T07:55:01.634Z,16.55
2023-01-01T08:00:08.256Z,16.45
2023-01-01T08:05:16.942Z,16.55
2023-01-01T08:10:23.045Z,16.36
2023-01-01T08:15:28.871Z,16.38
2023-01-01T08:20:35.399Z,16.39
2023-01-01T08:25:40.933Z,16.40
2023-01-01T08:30:46.341Z,16.37
2023-01-01T08:35:54.340Z,16.41
2023-01-01T08:40:59.181Z,16.49
2023-01-01T08:46:04.740Z,16.46
2023-01-01T08:51:11.480Z,16.41
2023-01-01T08:56:17.084Z,16.45
2023-01-01T09:01:22.641Z,16.52
2023-01-01T09:06:28.426Z,16.48
2023-01-01T09:11:33.965Z,16.46
2023-01-01T09:16:44.279Z,16.44
2023-01-01T09:21:47.301Z,16.44
2023-01-01T09:26:53.004Z,16.43
2023-01-01T09:31:58.503Z,16.30
2023-01-01T09:37:03.945Z,16.45
2023-01-01T09:42:32.455Z,16.46
2023-01-01T09:47:44.237Z,16.48
2023-01-01T09:52:59.145Z,16.52
2023-01-01T09:58:04.722Z,16.55
2023-01-01T10:03:13.171Z,16.54
2023-01-01T10:08:30.665Z,16.54
2023-01-01T10:13:42.068Z,16.55
2023-01-01T10:18:50.185Z,16.46
2023-01-01T10:24:01.362Z,16.66
2023-01-01T10:29:15.952Z,16.58
2023-01-01T10:34:26.734Z,16.59
2023-01-01T10:39:32.244Z,16.62
2023-01-01T10:44:38.107Z,16.65
2023-01-01T10:49:59.154Z,16.73
2023-01-01T10:55:06.757Z,16.80
2023-01-01T11:00:27.426Z,16.82
2023-01-01T11:05:33.106Z,16.92
2023-01-01T11:10:38.561Z,16.92
2023-01-01T11:15:44.592Z,17.00
2023-01-01T11:21:00.607Z,17.10
2023-01-01T11:26:20.677Z,17.11
2023-01-01T11:31:29.517Z,17.21
2023-01-01T11:36:36.549Z,17.26
2023-01-01T11:41:48.099Z,17.39
2023-01-01T11:46:53.807Z,17.39
2023-01-01T11:52:00.447Z,17.32
2023-01-01T11:57:14.625Z,17.19
2023-01-01T12:02:29.189Z,17.33
2023-01-01T12:07:37.566Z,17.30
2023-01-01T12:12:48.955Z,17.28
2023-01-01T12:18:03.581Z,17.34
2023-01-01T12:23:11.975Z,17.24
2023-01-01T12:28:23.119Z,17.21
2023-01-01T12:33:37.225Z,17.18
2023-01-01T12:38:54.704Z,17.12
2023-01-01T12:44:09.202Z,17.03
2023-01-01T12:49:32.550Z,16.96
2023-01-01T12:54:52.712Z,17.03
2023-01-01T13:00:01.337Z,16.94
2023-01-01T13:05:10.257Z,16.95
2023-01-01T13:10:30.410Z,16.83
2023-01-01T13:15:44.996Z,16.85
2023-01-01T13:20:59.443Z,17.00
2023-01-01T13:26:23.223Z,16.89
2023-01-01T13:31:44.144Z,16.73
2023-01-01T13:36:49.635Z,16.64
2023-01-01T13:41:55.103Z,16.59
2023-01-01T13:47:03.574Z,16.52
2023-01-01T13:52:34.800Z,16.45
2023-01-01T13:58:02.980Z,16.49
2023-01-01T14:03:11.633Z,16.44
2023-01-01T14:08:34.660Z,16.40
2023-01-01T14:13:43.082Z,16.41
2023-01-01T14:18:51.315Z,16.35
2023-01-01T14:23:59.710Z,16.33
2023-01-01T14:29:10.359Z,16.25
2023-01-01T14:34:31.144Z,16.17
2023-01-01T14:39:38.061Z,16.11
2023-01-01T14:44:46.175Z,16.00
2023-01-01T14:49:53.697Z,15.99
2023-01-01T14:55:01.677Z,15.94
2023-01-01T15:00:25.348Z,15.85
2023-01-01T15:05:35.880Z,15.73
2023-01-01T15:10:41.186Z,15.74
2023-01-01T15:15:49.314Z,15.70
2023-01-01T15:20:56.741Z,15.58
2023-01-01T15:26:02.965Z,15.44
2023-01-01T15:31:08.720Z,15.46
2023-01-01T15:36:15.418Z,15.50
2023-01-01T15:41:45.398Z,15.35
2023-01-01T15:46:54.909Z,15.38
2023-01-01T15:52:06.596Z,15.33
2023-01-01T15:57:24.311Z,15.20
2023-01-01T16:02:37.235Z,15.14
2023-01-01T16:07:43.272Z,15.13
2023-01-01T16:12:48.653Z,15.00
2023-01-01T16:17:55.250Z,15.00
2023-01-01T16:23:00.731Z,14.95
2023-01-01T16:28:06.924Z,14.79
2023-01-01T16:33:18.337Z,14.65
2023-01-01T16:38:23.807Z,14.58
2023-01-01T16:43:29.197Z,14.49
2023-01-01T16:48:35.174Z,14.41
2023-01-01T16:53:41.028Z,14.30
2023-01-01T16:58:50.021Z,14.29
2023-01-01T17:03:55.478Z,14.11
2023-01-01T17:09:01.766Z,14.11
2023-01-01T17:14:07.631Z,14.11
2023-01-01T17:19:16.193Z,14.12
2023-01-01T17:24:22.331Z,14.03
2023-01-01T17:29:27.775Z,14.08
2023-01-01T17:34:33.249Z,14.06
2023-01-01T17:39:38.703Z,14.10
2023-01-01T17:44:45.297Z,14.12
2023-01-01T17:49:50.946Z,14.15
2023-01-01T17:54:56.474Z,14.18
2023-01-01T18:00:03.378Z,14.14
2023-01-01T18:05:10.632Z,14.12
2023-01-01T18:10:16.193Z,14.06
2023-01-01T18:15:22.789Z,14.07
2023-01-01T18:20:28.357Z,14.09
2023-01-01T18:25:33.821Z,15.22
2023-01-01T18:30:39.532Z,14.39
2023-01-01T18:35:45.048Z,14.24
2023-01-01T18:40:53.492Z,14.39
2023-01-01T18:45:59.095Z,15.11
2023-01-01T18:51:13.270Z,14.43
2023-01-01T18:56:18.699Z,14.24
2023-01-01T19:01:25.610Z,14.04
2023-01-01T19:06:34.057Z,14.02
2023-01-01T19:11:40.008Z,13.97
2023-01-01T19:16:47.388Z,13.96
2023-01-01T19:21:55.978Z,13.88
2023-01-01T19:27:13.516Z,13.79
2023-01-01T19:32:20.946Z,13.82
2023-01-01T19:37:26.489Z,13.75
2023-01-01T19:42:31.950Z,13.71
2023-01-01T19:47:38.478Z,13.66
2023-01-01T19:52:45.368Z,13.70
2023-01-01T19:57:51.770Z,13.67
2023-01-01T20:03:25.909Z,13.66
2023-01-01T20:08:08.937Z,13.67
2023-01-01T20:13:16.272Z,13.65
2023-01-01T20:18:22.102Z,13.66
2023-01-01T20:23:28.234Z,13.61
2023-01-01T20:28:54.291Z,13.69
2023-01-01T20:34:00.627Z,13.74
2023-01-01T20:39:06.011Z,13.72
2023-01-01T20:44:11.430Z,13.76
2023-01-01T20:49:18.567Z,13.77
2023-01-01T20:54:24.434Z,13.74
2023-01-01T20:59:38.591Z,13.82
2023-01-01T21:04:39.664Z,13.81
2023-01-01T21:09:45.461Z,13.76
2023-01-01T21:14:52.292Z,13.74
2023-01-01T21:19:59.427Z,13.75
2023-01-01T21:25:40.840Z,13.82
2023-01-01T21:30:15.344Z,13.80
2023-01-01T21:35:35.807Z,13.77
2023-01-01T21:40:55.391Z,13.88
2023-01-01T21:46:09.692Z,13.86
2023-01-01T21:51:26.798Z,13.92
2023-01-01T21:56:38.172Z,13.92
2023-01-01T22:01:45.920Z,13.97
2023-01-01T22:06:54.770Z,13.94
2023-01-01T22:12:18.496Z,13.99
2023-01-01T22:17:34.973Z,13.96
2023-01-01T22:22:36.992Z,13.91
2023-01-01T22:27:42.551Z,13.86
2023-01-01T22:32:55.163Z,13.74
2023-01-01T22:38:06.265Z,13.76
2023-01-01T22:43:14.715Z,13.82
2023-01-01T22:48:36.274Z,13.73
2023-01-01T22:53:42.403Z,13.84
2023-01-01T22:58:53.074Z,13.90
2023-01-01T23:03:55.243Z,13.94
2023-01-01T23:09:04.563Z,13.93
2023-01-01T23:14:28.617Z,13.94
2023-01-01T23:19:34.601Z,13.97
2023-01-01T23:24:40.205Z,14.01
2023-01-01T23:29:48.341Z,14.16
2023-01-01T23:34:53.977Z,14.05
2023-01-01T23:39:59.518Z,14.08
2023-01-01T23:45:05.669Z,14.06
2023-01-01T23:50:11.572Z,13.98
2023-01-01T23:55:18.468Z,13.99
